sensor_id;sensor_type;location;lat;lon;timestamp;temperature;humidity
54788;DHT22;59598;48.112;16.280;2023-04-25T00:01:54;10.80;1.00
54788;DHT22;59598;48.112;16.280;2023-04-25T00:04:29;10.80;1.00
54788;DHT22;59598;48.112;16.280;2023-04-25T00:07:04;10.70;1.00
54788;DHT22;59598;48.112;16.280;2023-04-25T00:09:41;10.70;1.00
54788;DHT22;59598;48.112;16.280;2023-04-25T00:12:13;10.70;1.00
54788;DHT22;59598;48.112;16.280;2023-04-25T00:14:46;10.70;1.00
54788;DHT22;59598;48.112;16.280;2023-04-25T00:17:20;10.70;1.00
54788;DHT22;59598;48.112;16.280;2023-04-25T00:19:55;10.70;1.00
54788;DHT22;59598;48.112;16.280;2023-04-25T00:22:32;10.70;1.00
54788;DHT22;59598;48.112;16.280;2023-04-25T00:25:10;10.70;1.00
54788;DHT22;59598;48.112;16.280;2023-04-25T00:27:42;10.70;1.00
54788;DHT22;59598;48.112;16.280;2023-04-25T00:30:14;10.70;1.00
54788;DHT22;59598;48.112;16.280;2023-04-25T00:32:53;10.70;1.00
54788;DHT22;59598;48.112;16.280;2023-04-25T00:35:30;10.60;1.00
54788;DHT22;59598;48.112;16.280;2023-04-25T00:38:04;10.60;1.00
54788;DHT22;59598;48.112;16.280;2023-04-25T00:40:35;10.60;1.00
54788;DHT22;59598;48.112;16.280;2023-04-25T00:43:07;10.60;1.00
54788;DHT22;59598;48.112;16.280;2023-04-25T00:45:42;10.60;1.00
54788;DHT22;59598;48.112;16.280;2023-04-25T00:48:14;10.60;1.00
54788;DHT22;59598;48.112;16.280;2023-04-25T00:50:53;10.60;1.00
54788;DHT22;59598;48.112;16.280;2023-04-25T00:53:28;10.60;1.00
54788;DHT22;59598;48.112;16.280;2023-04-25T00:56:02;10.60;1.00
54788;DHT22;59598;48.112;16.280;2023-04-25T00:58:38;10.50;1.00
54788;DHT22;59598;48.112;16.280;2023-04-25T01:03:49;10.50;1.00
54788;DHT22;59598;48.112;16.280;2023-04-25T01:06:22;10.50;1.00
54788;DHT22;59598;48.112;16.280;2023-04-25T01:08:56;10.50;1.00
54788;DHT22;59598;48.112;16.280;2023-04-25T01:11:28;10.50;1.00
54788;DHT22;59598;48.112;16.280;2023-04-25T01:14:03;10.50;1.00
54788;DHT22;59598;48.112;16.280;2023-04-25T01:16:40;10.50;1.00
54788;DHT22;59598;48.112;16.280;2023-04-25T01:19:17;10.40;1.00
54788;DHT22;59598;48.112;16.280;2023-04-25T01:21:49;10.40;1.00
54788;DHT22;59598;48.112;16.280;2023-04-25T01:24:21;10.40;1.00
54788;DHT22;59598;48.112;16.280;2023-04-25T01:26:55;10.40;1.00
54788;DHT22;59598;48.112;16.280;2023-04-25T01:29:36;10.40;1.00
54788;DHT22;59598;48.112;16.280;2023-04-25T01:32:16;10.40;1.00
54788;DHT22;59598;48.112;16.280;2023-04-25T01:34:51;10.40;1.00
54788;DHT22;59598;48.112;16.280;2023-04-25T01:37:23;10.40;1.00
54788;DHT22;59598;48.112;16.280;2023-04-25T01:39:55;10.40;1.00
54788;DHT22;59598;48.112;16.280;2023-04-25T01:42:29;10.30;1.00
54788;DHT22;59598;48.112;16.280;2023-04-25T01:45:01;10.30;1.00
54788;DHT22;59598;48.112;16.280;2023-04-25T01:47:39;10.30;1.00
54788;DHT22;59598;48.112;16.280;2023-04-25T01:50:24;10.30;1.00
54788;DHT22;59598;48.112;16.280;2023-04-25T01:52:55;10.20;1.00
54788;DHT22;59598;48.112;16.280;2023-04-25T01:55:37;10.20;1.00
54788;DHT22;59598;48.112;16.280;2023-04-25T01:58:17;10.20;1.00
54788;DHT22;59598;48.112;16.280;2023-04-25T02:00:50;10.20;1.00
54788;DHT22;59598;48.112;16.280;2023-04-25T02:03:29;10.20;1.00
54788;DHT22;59598;48.112;16.280;2023-04-25T02:06:01;10.10;1.00
54788;DHT22;59598;48.112;16.280;2023-04-25T02:08:35;10.10;1.00
54788;DHT22;59598;48.112;16.280;2023-04-25T02:11:10;10.10;1.00
54788;DHT22;59598;48.112;16.280;2023-04-25T02:13:42;10.00;1.00
54788;DHT22;59598;48.112;16.280;2023-04-25T02:16:14;10.00;1.00
54788;DHT22;59598;48.112;16.280;2023-04-25T02:18:46;9.90;1.00
54788;DHT22;59598;48.112;16.280;2023-04-25T02:21:26;9.90;1.00
54788;DHT22;59598;48.112;16.280;2023-04-25T02:24:03;9.80;1.00
54788;DHT22;59598;48.112;16.280;2023-04-25T02:26:40;9.80;1.00
54788;DHT22;59598;48.112;16.280;2023-04-25T02:29:12;9.80;1.00
54788;DHT22;59598;48.112;16.280;2023-04-25T02:31:43;9.80;1.00
54788;DHT22;59598;48.112;16.280;2023-04-25T02:34:20;9.80;1.00
54788;DHT22;59598;48.112;16.280;2023-04-25T02:36:57;9.70;1.00
54788;DHT22;59598;48.112;16.280;2023-04-25T02:39:33;9.70;1.00
54788;DHT22;59598;48.112;16.280;2023-04-25T02:42:10;9.70;1.00
54788;DHT22;59598;48.112;16.280;2023-04-25T02:44:49;9.70;1.00
54788;DHT22;59598;48.112;16.280;2023-04-25T02:47:21;9.70;1.00
54788;DHT22;59598;48.112;16.280;2023-04-25T02:49:58;9.70;1.00
54788;DHT22;59598;48.112;16.280;2023-04-25T02:52:33;9.60;1.00
54788;DHT22;59598;48.112;16.280;2023-04-25T02:55:05;9.60;1.00
54788;DHT22;59598;48.112;16.280;2023-04-25T02:57:43;9.60;1.00
54788;DHT22;59598;48.112;16.280;2023-04-25T03:00:16;9.60;1.00
54788;DHT22;59598;48.112;16.280;2023-04-25T03:02:48;9.60;1.00
54788;DHT22;59598;48.112;16.280;2023-04-25T03:05:22;9.60;1.00
54788;DHT22;59598;48.112;16.280;2023-04-25T03:07:55;9.50;1.00
54788;DHT22;59598;48.112;16.280;2023-04-25T03:10:29;9.50;1.00
54788;DHT22;59598;48.112;16.280;2023-04-25T03:13:02;9.40;1.00
54788;DHT22;59598;48.112;16.280;2023-04-25T03:15:41;9.40;1.00
54788;DHT22;59598;48.112;16.280;2023-04-25T03:18:16;9.40;1.00
54788;DHT22;59598;48.112;16.280;2023-04-25T03:20:50;9.30;1.00
54788;DHT22;59598;48.112;16.280;2023-04-25T03:23:21;9.30;1.00
54788;DHT22;59598;48.112;16.280;2023-04-25T03:25:53;9.20;1.00
54788;DHT22;59598;48.112;16.280;2023-04-25T03:28:28;9.30;1.00
54788;DHT22;59598;48.112;16.280;2023-04-25T03:31:02;9.30;1.00
54788;DHT22;59598;48.112;16.280;2023-04-25T03:33:33;9.30;1.00
54788;DHT22;59598;48.112;16.280;2023-04-25T03:36:05;9.30;1.00
54788;DHT22;59598;48.112;16.280;2023-04-25T03:38:37;9.20;1.00
54788;DHT22;59598;48.112;16.280;2023-04-25T03:41:09;9.20;1.00
54788;DHT22;59598;48.112;16.280;2023-04-25T03:43:43;9.20;1.00
54788;DHT22;59598;48.112;16.280;2023-04-25T03:46:16;9.10;1.00
54788;DHT22;59598;48.112;16.280;2023-04-25T03:48:48;9.10;1.00
54788;DHT22;59598;48.112;16.280;2023-04-25T03:51:24;9.10;1.00
54788;DHT22;59598;48.112;16.280;2023-04-25T03:53:58;9.10;1.00
54788;DHT22;59598;48.112;16.280;2023-04-25T03:56:30;9.10;1.00
54788;DHT22;59598;48.112;16.280;2023-04-25T03:59:06;9.00;1.00
54788;DHT22;59598;48.112;16.280;2023-04-25T04:01:38;9.00;1.00
54788;DHT22;59598;48.112;16.280;2023-04-25T04:04:14;9.00;1.00
54788;DHT22;59598;48.112;16.280;2023-04-25T04:06:45;8.90;1.00
54788;DHT22;59598;48.112;16.280;2023-04-25T04:09:17;9.00;1.00
54788;DHT22;59598;48.112;16.280;2023-04-25T04:11:51;8.90;1.00
54788;DHT22;59598;48.112;16.280;2023-04-25T04:14:32;9.00;1.00
54788;DHT22;59598;48.112;16.280;2023-04-25T04:17:11;8.90;1.00
54788;DHT22;59598;48.112;16.280;2023-04-25T04:19:47;8.90;1.00
54788;DHT22;59598;48.112;16.280;2023-04-25T04:22:24;8.90;1.00
54788;DHT22;59598;48.112;16.280;2023-04-25T04:24:59;8.80;1.00
54788;DHT22;59598;48.112;16.280;2023-04-25T04:27:31;8.80;1.00
54788;DHT22;59598;48.112;16.280;2023-04-25T04:30:03;8.90;1.00
54788;DHT22;59598;48.112;16.280;2023-04-25T04:32:35;8.90;1.00
54788;DHT22;59598;48.112;16.280;2023-04-25T04:35:15;8.90;1.00
54788;DHT22;59598;48.112;16.280;2023-04-25T04:37:52;8.90;1.00
54788;DHT22;59598;48.112;16.280;2023-04-25T04:40:27;8.90;1.00
54788;DHT22;59598;48.112;16.280;2023-04-25T04:43:04;8.80;1.00
54788;DHT22;59598;48.112;16.280;2023-04-25T04:45:37;8.80;1.00
54788;DHT22;59598;48.112;16.280;2023-04-25T04:48:14;8.70;1.00
54788;DHT22;59598;48.112;16.280;2023-04-25T04:50:48;8.50;1.00
54788;DHT22;59598;48.112;16.280;2023-04-25T04:53:20;8.40;1.00
54788;DHT22;59598;48.112;16.280;2023-04-25T04:55:54;8.40;1.00
54788;DHT22;59598;48.112;16.280;2023-04-25T04:58:32;8.30;1.00
54788;DHT22;59598;48.112;16.280;2023-04-25T05:01:07;8.40;1.00
54788;DHT22;59598;48.112;16.280;2023-04-25T05:03:41;8.30;1.00
54788;DHT22;59598;48.112;16.280;2023-04-25T05:06:12;8.30;1.00
54788;DHT22;59598;48.112;16.280;2023-04-25T05:08:44;8.30;1.00
54788;DHT22;59598;48.112;16.280;2023-04-25T05:11:21;8.30;1.00
54788;DHT22;59598;48.112;16.280;2023-04-25T05:13:56;8.20;1.00
54788;DHT22;59598;48.112;16.280;2023-04-25T05:16:30;8.30;1.00
54788;DHT22;59598;48.112;16.280;2023-04-25T05:19:04;8.20;1.00
54788;DHT22;59598;48.112;16.280;2023-04-25T05:21:41;8.10;1.00
54788;DHT22;59598;48.112;16.280;2023-04-25T05:24:14;8.20;1.00
54788;DHT22;59598;48.112;16.280;2023-04-25T05:26:53;8.30;1.00
54788;DHT22;59598;48.112;16.280;2023-04-25T05:29:31;8.70;1.00
54788;DHT22;59598;48.112;16.280;2023-04-25T05:32:06;8.90;1.00
54788;DHT22;59598;48.112;16.280;2023-04-25T05:34:38;9.30;1.00
54788;DHT22;59598;48.112;16.280;2023-04-25T05:37:15;9.50;1.00
54788;DHT22;59598;48.112;16.280;2023-04-25T05:39:55;9.70;1.00
54788;DHT22;59598;48.112;16.280;2023-04-25T05:42:29;9.70;1.00
54788;DHT22;59598;48.112;16.280;2023-04-25T05:45:00;9.80;1.00
54788;DHT22;59598;48.112;16.280;2023-04-25T05:47:33;10.10;1.00
54788;DHT22;59598;48.112;16.280;2023-04-25T05:50:05;10.30;1.00
54788;DHT22;59598;48.112;16.280;2023-04-25T05:52:48;10.50;1.00
54788;DHT22;59598;48.112;16.280;2023-04-25T05:55:24;10.80;1.00
54788;DHT22;59598;48.112;16.280;2023-04-25T05:57:56;11.10;1.00
54788;DHT22;59598;48.112;16.280;2023-04-25T06:00:32;11.20;1.00
54788;DHT22;59598;48.112;16.280;2023-04-25T06:03:08;11.30;1.00
54788;DHT22;59598;48.112;16.280;2023-04-25T06:05:48;11.10;99.90
54788;DHT22;59598;48.112;16.280;2023-04-25T06:08:22;11.30;1.00
54788;DHT22;59598;48.112;16.280;2023-04-25T06:10:56;11.50;1.00
54788;DHT22;59598;48.112;16.280;2023-04-25T06:13:28;11.50;1.00
54788;DHT22;59598;48.112;16.280;2023-04-25T06:16:03;11.60;1.00
54788;DHT22;59598;48.112;16.280;2023-04-25T06:18:37;11.70;1.00
54788;DHT22;59598;48.112;16.280;2023-04-25T06:21:11;11.80;1.00
54788;DHT22;59598;48.112;16.280;2023-04-25T06:23:45;11.80;1.00
54788;DHT22;59598;48.112;16.280;2023-04-25T06:26:21;11.80;1.00
54788;DHT22;59598;48.112;16.280;2023-04-25T06:28:56;12.10;1.00
54788;DHT22;59598;48.112;16.280;2023-04-25T06:31:28;12.10;1.00
54788;DHT22;59598;48.112;16.280;2023-04-25T06:34:04;12.20;60.40
54788;DHT22;59598;48.112;16.280;2023-04-25T06:36:38;12.20;36.40
54788;DHT22;59598;48.112;16.280;2023-04-25T06:39:12;12.20;8.60
54788;DHT22;59598;48.112;16.280;2023-04-25T06:41:48;12.30;20.30
54788;DHT22;59598;48.112;16.280;2023-04-25T06:44:20;12.30;34.50
54788;DHT22;59598;48.112;16.280;2023-04-25T06:46:54;12.20;60.30
54788;DHT22;59598;48.112;16.280;2023-04-25T06:49:28;12.20;33.70
54788;DHT22;59598;48.112;16.280;2023-04-25T06:52:02;12.30;65.20
54788;DHT22;59598;48.112;16.280;2023-04-25T06:54:36;12.40;99.90
54788;DHT22;59598;48.112;16.280;2023-04-25T06:57:08;12.40;99.90
54788;DHT22;59598;48.112;16.280;2023-04-25T06:59:45;12.30;99.90
54788;DHT22;59598;48.112;16.280;2023-04-25T07:02:17;12.20;99.90
54788;DHT22;59598;48.112;16.280;2023-04-25T07:04:48;12.20;99.90
54788;DHT22;59598;48.112;16.280;2023-04-25T07:07:20;12.30;99.90
54788;DHT22;59598;48.112;16.280;2023-04-25T07:09:54;12.40;99.90
54788;DHT22;59598;48.112;16.280;2023-04-25T07:12:30;12.50;99.90
54788;DHT22;59598;48.112;16.280;2023-04-25T07:15:02;12.60;99.90
54788;DHT22;59598;48.112;16.280;2023-04-25T07:17:37;12.80;99.90
54788;DHT22;59598;48.112;16.280;2023-04-25T07:20:11;13.00;99.90
54788;DHT22;59598;48.112;16.280;2023-04-25T07:22:45;13.10;99.90
54788;DHT22;59598;48.112;16.280;2023-04-25T07:25:17;13.00;99.90
54788;DHT22;59598;48.112;16.280;2023-04-25T07:27:48;12.90;99.90
54788;DHT22;59598;48.112;16.280;2023-04-25T07:30:22;13.00;99.90
54788;DHT22;59598;48.112;16.280;2023-04-25T07:32:59;13.20;99.90
54788;DHT22;59598;48.112;16.280;2023-04-25T07:35:31;13.10;99.90
54788;DHT22;59598;48.112;16.280;2023-04-25T07:38:03;13.10;99.90
54788;DHT22;59598;48.112;16.280;2023-04-25T07:40:37;13.40;99.90
54788;DHT22;59598;48.112;16.280;2023-04-25T07:43:09;13.20;99.90
54788;DHT22;59598;48.112;16.280;2023-04-25T07:45:45;13.20;99.90
54788;DHT22;59598;48.112;16.280;2023-04-25T07:48:18;13.40;99.90
54788;DHT22;59598;48.112;16.280;2023-04-25T07:50:52;13.70;99.90
54788;DHT22;59598;48.112;16.280;2023-04-25T07:53:24;13.80;99.90
54788;DHT22;59598;48.112;16.280;2023-04-25T07:55:55;13.70;99.90
54788;DHT22;59598;48.112;16.280;2023-04-25T07:58:29;13.80;99.90
54788;DHT22;59598;48.112;16.280;2023-04-25T08:01:01;13.80;99.90
54788;DHT22;59598;48.112;16.280;2023-04-25T08:03:32;14.10;99.90
54788;DHT22;59598;48.112;16.280;2023-04-25T08:06:06;13.80;99.90
54788;DHT22;59598;48.112;16.280;2023-04-25T08:08:40;13.90;99.90
54788;DHT22;59598;48.112;16.280;2023-04-25T08:11:14;14.00;99.90
54788;DHT22;59598;48.112;16.280;2023-04-25T08:13:50;14.10;99.90
54788;DHT22;59598;48.112;16.280;2023-04-25T08:16:22;13.90;99.90
54788;DHT22;59598;48.112;16.280;2023-04-25T08:18:56;14.30;99.90
54788;DHT22;59598;48.112;16.280;2023-04-25T08:21:27;14.40;99.90
54788;DHT22;59598;48.112;16.280;2023-04-25T08:24:00;14.80;99.90
54788;DHT22;59598;48.112;16.280;2023-04-25T08:26:37;14.70;99.90
54788;DHT22;59598;48.112;16.280;2023-04-25T08:29:12;15.00;99.90
54788;DHT22;59598;48.112;16.280;2023-04-25T08:31:44;15.00;99.90
54788;DHT22;59598;48.112;16.280;2023-04-25T08:34:18;15.20;99.90
54788;DHT22;59598;48.112;16.280;2023-04-25T08:36:54;15.40;99.90
54788;DHT22;59598;48.112;16.280;2023-04-25T08:39:32;15.40;99.90
54788;DHT22;59598;48.112;16.280;2023-04-25T08:42:08;15.50;99.90
54788;DHT22;59598;48.112;16.280;2023-04-25T08:44:45;15.10;99.90
54788;DHT22;59598;48.112;16.280;2023-04-25T08:47:27;15.20;99.90
54788;DHT22;59598;48.112;16.280;2023-04-25T08:50:02;15.00;99.90
54788;DHT22;59598;48.112;16.280;2023-04-25T08:52:39;14.70;99.90
54788;DHT22;59598;48.112;16.280;2023-04-25T08:55:15;14.50;99.90
54788;DHT22;59598;48.112;16.280;2023-04-25T08:57:50;14.10;99.90
54788;DHT22;59598;48.112;16.280;2023-04-25T09:00:25;14.10;99.90
54788;DHT22;59598;48.112;16.280;2023-04-25T09:02:58;14.00;99.90
54788;DHT22;59598;48.112;16.280;2023-04-25T09:05:32;14.20;99.90
54788;DHT22;59598;48.112;16.280;2023-04-25T09:08:05;13.90;99.90
54788;DHT22;59598;48.112;16.280;2023-04-25T09:10:38;14.20;99.90
54788;DHT22;59598;48.112;16.280;2023-04-25T09:13:13;14.60;99.90
54788;DHT22;59598;48.112;16.280;2023-04-25T09:15:50;15.00;99.90
54788;DHT22;59598;48.112;16.280;2023-04-25T09:18:32;14.50;99.90
54788;DHT22;59598;48.112;16.280;2023-04-25T09:21:11;14.00;99.90
54788;DHT22;59598;48.112;16.280;2023-04-25T09:23:47;13.30;99.90
54788;DHT22;59598;48.112;16.280;2023-04-25T09:26:22;12.40;99.90
54788;DHT22;59598;48.112;16.280;2023-04-25T09:29:07;11.80;99.90
54788;DHT22;59598;48.112;16.280;2023-04-25T09:31:41;11.70;99.90
54788;DHT22;59598;48.112;16.280;2023-04-25T09:34:16;11.90;99.90
54788;DHT22;59598;48.112;16.280;2023-04-25T09:36:50;12.20;99.90
54788;DHT22;59598;48.112;16.280;2023-04-25T09:39:33;12.40;99.90
54788;DHT22;59598;48.112;16.280;2023-04-25T09:42:12;12.80;99.90
54788;DHT22;59598;48.112;16.280;2023-04-25T09:44:46;13.30;99.90
54788;DHT22;59598;48.112;16.280;2023-04-25T09:47:24;13.70;99.90
54788;DHT22;59598;48.112;16.280;2023-04-25T09:49:59;13.90;99.90
54788;DHT22;59598;48.112;16.280;2023-04-25T09:52:33;14.10;99.90
54788;DHT22;59598;48.112;16.280;2023-04-25T09:55:07;14.60;99.90
54788;DHT22;59598;48.112;16.280;2023-04-25T09:57:39;14.90;99.90
54788;DHT22;59598;48.112;16.280;2023-04-25T10:00:14;15.30;99.90
54788;DHT22;59598;48.112;16.280;2023-04-25T10:02:52;16.10;99.90
54788;DHT22;59598;48.112;16.280;2023-04-25T10:05:32;16.80;99.90
54788;DHT22;59598;48.112;16.280;2023-04-25T10:08:06;15.30;99.90
54788;DHT22;59598;48.112;16.280;2023-04-25T10:10:40;13.60;99.90
54788;DHT22;59598;48.112;16.280;2023-04-25T10:13:12;12.50;99.90
54788;DHT22;59598;48.112;16.280;2023-04-25T10:15:45;11.60;99.90
54788;DHT22;59598;48.112;16.280;2023-04-25T10:18:21;10.70;99.90
54788;DHT22;59598;48.112;16.280;2023-04-25T10:21:00;10.30;99.90
54788;DHT22;59598;48.112;16.280;2023-04-25T10:23:33;9.60;99.90
54788;DHT22;59598;48.112;16.280;2023-04-25T10:26:05;9.10;99.90
54788;DHT22;59598;48.112;16.280;2023-04-25T10:28:57;9.00;99.90
54788;DHT22;59598;48.112;16.280;2023-04-25T10:31:32;8.90;99.90
54788;DHT22;59598;48.112;16.280;2023-04-25T10:34:04;9.10;99.90
54788;DHT22;59598;48.112;16.280;2023-04-25T10:36:38;9.30;99.90
54788;DHT22;59598;48.112;16.280;2023-04-25T10:39:10;9.60;99.90
54788;DHT22;59598;48.112;16.280;2023-04-25T10:41:58;9.90;99.90
54788;DHT22;59598;48.112;16.280;2023-04-25T10:44:31;10.60;99.90
54788;DHT22;59598;48.112;16.280;2023-04-25T10:47:06;11.30;99.90
54788;DHT22;59598;48.112;16.280;2023-04-25T10:49:42;12.00;99.90
54788;DHT22;59598;48.112;16.280;2023-04-25T10:52:34;12.70;99.90
54788;DHT22;59598;48.112;16.280;2023-04-25T10:55:06;13.50;99.90
54788;DHT22;59598;48.112;16.280;2023-04-25T10:57:42;15.00;99.90
54788;DHT22;59598;48.112;16.280;2023-04-25T11:00:20;17.00;99.90
54788;DHT22;59598;48.112;16.280;2023-04-25T11:03:02;19.10;99.90
54788;DHT22;59598;48.112;16.280;2023-04-25T11:05:35;20.80;99.90
54788;DHT22;59598;48.112;16.280;2023-04-25T11:08:11;21.00;99.90
54788;DHT22;59598;48.112;16.280;2023-04-25T11:10:45;20.80;99.90
54788;DHT22;59598;48.112;16.280;2023-04-25T11:13:23;20.20;99.90
54788;DHT22;59598;48.112;16.280;2023-04-25T11:16:03;17.40;99.90
54788;DHT22;59598;48.112;16.280;2023-04-25T11:18:43;16.70;99.90
54788;DHT22;59598;48.112;16.280;2023-04-25T11:21:18;17.40;99.90
54788;DHT22;59598;48.112;16.280;2023-04-25T11:23:49;19.00;99.90
54788;DHT22;59598;48.112;16.280;2023-04-25T11:26:26;19.30;99.90
54788;DHT22;59598;48.112;16.280;2023-04-25T11:29:03;18.10;99.90
54788;DHT22;59598;48.112;16.280;2023-04-25T11:31:35;15.00;99.90
54788;DHT22;59598;48.112;16.280;2023-04-25T11:34:11;12.40;99.90
54788;DHT22;59598;48.112;16.280;2023-04-25T11:36:45;10.80;99.90
54788;DHT22;59598;48.112;16.280;2023-04-25T11:39:19;9.80;99.90
54788;DHT22;59598;48.112;16.280;2023-04-25T11:41:53;9.30;99.90
54788;DHT22;59598;48.112;16.280;2023-04-25T11:44:30;9.20;99.90
54788;DHT22;59598;48.112;16.280;2023-04-25T11:47:04;9.20;99.90
54788;DHT22;59598;48.112;16.280;2023-04-25T11:49:35;9.10;99.90
54788;DHT22;59598;48.112;16.280;2023-04-25T11:52:10;9.10;99.90
54788;DHT22;59598;48.112;16.280;2023-04-25T11:54:41;9.20;99.90
54788;DHT22;59598;48.112;16.280;2023-04-25T11:57:19;9.40;99.90
54788;DHT22;59598;48.112;16.280;2023-04-25T11:59:51;9.80;99.90
54788;DHT22;59598;48.112;16.280;2023-04-25T12:02:25;10.30;99.90
54788;DHT22;59598;48.112;16.280;2023-04-25T12:05:05;11.00;99.90
54788;DHT22;59598;48.112;16.280;2023-04-25T12:07:39;11.70;99.90
54788;DHT22;59598;48.112;16.280;2023-04-25T12:10:14;12.50;99.90
54788;DHT22;59598;48.112;16.280;2023-04-25T12:12:53;13.80;99.90
54788;DHT22;59598;48.112;16.280;2023-04-25T12:15:33;15.30;99.90
54788;DHT22;59598;48.112;16.280;2023-04-25T12:18:09;15.70;99.90
54788;DHT22;59598;48.112;16.280;2023-04-25T12:20:41;15.90;99.90
54788;DHT22;59598;48.112;16.280;2023-04-25T12:23:16;16.50;99.90
54788;DHT22;59598;48.112;16.280;2023-04-25T12:26:01;16.90;99.90
54788;DHT22;59598;48.112;16.280;2023-04-25T12:28:36;16.30;99.90
54788;DHT22;59598;48.112;16.280;2023-04-25T12:31:09;16.70;99.90
54788;DHT22;59598;48.112;16.280;2023-04-25T12:33:45;16.40;99.90
54788;DHT22;59598;48.112;16.280;2023-04-25T12:36:18;16.70;99.90
54788;DHT22;59598;48.112;16.280;2023-04-25T12:38:50;16.60;99.90
54788;DHT22;59598;48.112;16.280;2023-04-25T12:41:22;15.40;99.90
54788;DHT22;59598;48.112;16.280;2023-04-25T12:43:58;15.60;99.90
54788;DHT22;59598;48.112;16.280;2023-04-25T12:46:29;14.80;99.90
54788;DHT22;59598;48.112;16.280;2023-04-25T12:49:03;14.60;99.90
54788;DHT22;59598;48.112;16.280;2023-04-25T12:51:36;15.70;99.90
54788;DHT22;59598;48.112;16.280;2023-04-25T12:54:08;16.70;99.90
54788;DHT22;59598;48.112;16.280;2023-04-25T12:56:45;17.80;99.90
54788;DHT22;59598;48.112;16.280;2023-04-25T12:59:19;18.70;99.90
54788;DHT22;59598;48.112;16.280;2023-04-25T13:01:56;18.90;99.90
54788;DHT22;59598;48.112;16.280;2023-04-25T13:04:34;19.30;99.90
54788;DHT22;59598;48.112;16.280;2023-04-25T13:07:11;18.70;99.90
54788;DHT22;59598;48.112;16.280;2023-04-25T13:09:48;19.10;99.90
54788;DHT22;59598;48.112;16.280;2023-04-25T13:12:26;19.60;99.90
54788;DHT22;59598;48.112;16.280;2023-04-25T13:15:00;19.70;99.90
54788;DHT22;59598;48.112;16.280;2023-04-25T13:17:36;19.00;99.90
54788;DHT22;59598;48.112;16.280;2023-04-25T13:20:09;19.00;99.90
54788;DHT22;59598;48.112;16.280;2023-04-25T13:22:45;18.60;99.90
54788;DHT22;59598;48.112;16.280;2023-04-25T13:25:22;19.40;99.90
54788;DHT22;59598;48.112;16.280;2023-04-25T13:27:55;19.50;99.90
54788;DHT22;59598;48.112;16.280;2023-04-25T13:30:27;20.10;99.90
54788;DHT22;59598;48.112;16.280;2023-04-25T13:32:58;19.40;99.90
54788;DHT22;59598;48.112;16.280;2023-04-25T13:35:37;18.20;99.90
54788;DHT22;59598;48.112;16.280;2023-04-25T13:38:09;18.10;99.90
54788;DHT22;59598;48.112;16.280;2023-04-25T13:40:47;17.90;99.90
54788;DHT22;59598;48.112;16.280;2023-04-25T13:43:23;17.60;99.90
54788;DHT22;59598;48.112;16.280;2023-04-25T13:45:55;17.50;99.90
54788;DHT22;59598;48.112;16.280;2023-04-25T13:48:26;17.70;99.90
54788;DHT22;59598;48.112;16.280;2023-04-25T13:51:06;18.40;99.90
54788;DHT22;59598;48.112;16.280;2023-04-25T13:53:42;18.60;99.90
54788;DHT22;59598;48.112;16.280;2023-04-25T13:56:13;18.10;99.90
54788;DHT22;59598;48.112;16.280;2023-04-25T13:58:51;17.50;99.90
54788;DHT22;59598;48.112;16.280;2023-04-25T14:01:26;16.60;99.90
54788;DHT22;59598;48.112;16.280;2023-04-25T14:04:05;16.60;99.90
54788;DHT22;59598;48.112;16.280;2023-04-25T14:06:39;16.50;99.90
54788;DHT22;59598;48.112;16.280;2023-04-25T14:09:13;17.00;99.90
54788;DHT22;59598;48.112;16.280;2023-04-25T14:11:48;16.50;99.90
54788;DHT22;59598;48.112;16.280;2023-04-25T14:14:20;16.50;99.90
54788;DHT22;59598;48.112;16.280;2023-04-25T14:16:54;16.40;99.90
54788;DHT22;59598;48.112;16.280;2023-04-25T14:19:28;16.20;99.90
54788;DHT22;59598;48.112;16.280;2023-04-25T14:22:02;16.40;99.90
54788;DHT22;59598;48.112;16.280;2023-04-25T14:24:36;16.70;99.90
54788;DHT22;59598;48.112;16.280;2023-04-25T14:27:09;15.70;99.90
54788;DHT22;59598;48.112;16.280;2023-04-25T14:29:46;15.40;99.90
54788;DHT22;59598;48.112;16.280;2023-04-25T14:32:20;15.70;99.90
54788;DHT22;59598;48.112;16.280;2023-04-25T14:34:52;15.70;99.90
54788;DHT22;59598;48.112;16.280;2023-04-25T14:37:28;16.60;99.90
54788;DHT22;59598;48.112;16.280;2023-04-25T14:40:06;17.20;99.90
54788;DHT22;59598;48.112;16.280;2023-04-25T14:42:44;17.20;99.90
54788;DHT22;59598;48.112;16.280;2023-04-25T14:45:15;17.30;99.90
54788;DHT22;59598;48.112;16.280;2023-04-25T14:47:47;17.20;99.90
54788;DHT22;59598;48.112;16.280;2023-04-25T14:50:20;17.30;99.90
54788;DHT22;59598;48.112;16.280;2023-04-25T14:52:55;17.50;99.90
54788;DHT22;59598;48.112;16.280;2023-04-25T14:55:34;17.40;99.90
54788;DHT22;59598;48.112;16.280;2023-04-25T14:58:09;17.50;99.90
54788;DHT22;59598;48.112;16.280;2023-04-25T15:00:41;16.40;99.90
54788;DHT22;59598;48.112;16.280;2023-04-25T15:03:14;16.20;99.90
54788;DHT22;59598;48.112;16.280;2023-04-25T15:05:47;16.60;99.90
54788;DHT22;59598;48.112;16.280;2023-04-25T15:08:21;17.10;99.90
54788;DHT22;59598;48.112;16.280;2023-04-25T15:10:56;17.00;99.90
54788;DHT22;59598;48.112;16.280;2023-04-25T15:13:30;15.60;99.90
54788;DHT22;59598;48.112;16.280;2023-04-25T15:16:05;16.20;99.90
54788;DHT22;59598;48.112;16.280;2023-04-25T15:18:44;16.60;99.90
54788;DHT22;59598;48.112;16.280;2023-04-25T15:21:16;15.80;99.90
54788;DHT22;59598;48.112;16.280;2023-04-25T15:23:49;15.80;99.90
54788;DHT22;59598;48.112;16.280;2023-04-25T15:26:24;15.90;99.90
54788;DHT22;59598;48.112;16.280;2023-04-25T15:28:58;16.30;99.90
54788;DHT22;59598;48.112;16.280;2023-04-25T15:31:29;16.50;99.90
54788;DHT22;59598;48.112;16.280;2023-04-25T15:34:04;16.00;99.90
54788;DHT22;59598;48.112;16.280;2023-04-25T15:36:44;15.30;99.90
54788;DHT22;59598;48.112;16.280;2023-04-25T15:39:17;15.00;99.90
54788;DHT22;59598;48.112;16.280;2023-04-25T15:41:49;14.50;99.90
54788;DHT22;59598;48.112;16.280;2023-04-25T15:44:21;14.20;99.90
54788;DHT22;59598;48.112;16.280;2023-04-25T15:46:55;14.80;99.90
54788;DHT22;59598;48.112;16.280;2023-04-25T15:49:31;15.20;99.90
54788;DHT22;59598;48.112;16.280;2023-04-25T15:52:06;14.80;99.90
54788;DHT22;59598;48.112;16.280;2023-04-25T15:54:38;14.70;99.90
54788;DHT22;59598;48.112;16.280;2023-04-25T15:57:12;14.20;99.90
54788;DHT22;59598;48.112;16.280;2023-04-25T15:59:43;14.30;99.90
54788;DHT22;59598;48.112;16.280;2023-04-25T16:02:16;14.20;99.90
54788;DHT22;59598;48.112;16.280;2023-04-25T16:04:48;13.80;99.90
54788;DHT22;59598;48.112;16.280;2023-04-25T16:07:22;14.30;99.90
54788;DHT22;59598;48.112;16.280;2023-04-25T16:09:53;14.30;99.90
54788;DHT22;59598;48.112;16.280;2023-04-25T16:12:26;13.50;99.90
54788;DHT22;59598;48.112;16.280;2023-04-25T16:14:58;13.10;99.90